Time;durP1;ratioP1;P1;durP2;ratioP2;P2;SDS_P1;SDS_P2;PMS_P1;PMS_P2;Temp;Humidity;BMP_temperature;BMP_pressure;BME280_temperature;BME280_humidity;BME280_pressure;Samples;Min_cycle;Max_cycle;Signal;HPM_P1;HPM_P2
2022/06/23 00:02:08;;;;;;;5.25;4.75;;;14.80;83.50;;;;;;4963023;28;20034;-81
2022/06/23 00:04:39;;;;;;;5.82;4.55;;;14.70;83.40;;;;;;4978105;28;20494;-81
2022/06/23 00:07:25;;;;;;;4.63;4.22;;;14.70;83.40;;;;;;4993715;28;20059;-81
2022/06/23 00:09:54;;;;;;;4.13;3.72;;;14.70;83.50;;;;;;4994088;28;20038;-81
2022/06/23 00:12:36;;;;;;;5.13;4.07;;;14.70;83.50;;;;;;4977452;28;20121;-81
2022/06/23 00:15:02;;;;;;;5.05;4.50;;;14.70;83.40;;;;;;4977422;28;20038;-80
2022/06/23 00:17:34;;;;;;;5.45;4.95;;;14.60;83.50;;;;;;4977566;28;20101;-81
2022/06/23 00:20:23;;;;;;;5.13;4.63;;;14.60;83.40;;;;;;4962419;28;20038;-80
2022/06/23 00:22:53;;;;;;;4.95;4.40;;;14.50;83.60;;;;;;4995078;28;20390;-81
2022/06/23 00:25:43;;;;;;;6.15;5.10;;;14.60;83.80;;;;;;4978675;28;20478;-81
2022/06/23 00:28:15;;;;;;;4.97;4.43;;;14.60;83.90;;;;;;4962529;28;20393;-81
2022/06/23 00:30:42;;;;;;;5.10;4.47;;;14.50;83.60;;;;;;4978583;28;20049;-81
2022/06/23 00:33:18;;;;;;;5.47;4.93;;;14.50;83.50;;;;;;4962319;28;20038;-81
2022/06/23 00:35:46;;;;;;;5.10;4.07;;;14.50;83.60;;;;;;4978452;28;20537;-80
2022/06/23 00:38:24;;;;;;;6.10;5.15;;;14.40;83.60;;;;;;4962186;28;20150;-81
2022/06/23 00:40:49;;;;;;;5.88;4.68;;;14.30;83.80;;;;;;4978839;28;20049;-80
2022/06/23 00:43:17;;;;;;;6.32;4.43;;;14.40;83.70;;;;;;4978724;28;20046;-80
2022/06/23 00:45:52;;;;;;;4.53;4.13;;;14.30;83.60;;;;;;4995104;28;20092;-80
2022/06/23 00:48:36;;;;;;;6.25;4.68;;;14.30;83.80;;;;;;4962403;28;20034;-80
2022/06/23 00:51:05;;;;;;;;;;;14.20;83.80;;;;;;4994925;28;20129;-80
2022/06/23 00:53:50;;;;;;;5.68;5.10;;;14.10;84.20;;;;;;4977121;28;20174;-81
2022/06/23 00:56:41;;;;;;;5.45;4.47;;;14.00;83.70;;;;;;4977150;28;20482;-80
2022/06/23 00:59:21;;;;;;;5.65;4.90;;;14.00;83.80;;;;;;4977884;28;20050;-80
2022/06/23 01:02:09;;;;;;;8.25;5.75;;;13.90;84.00;;;;;;4977932;28;20125;-81
2022/06/23 01:04:57;;;;;;;6.65;5.60;;;13.90;84.10;;;;;;4961883;28;20048;-80
2022/06/23 01:08:10;;;;;;;6.88;5.90;;;13.90;84.30;;;;;;4977530;28;20557;-81
2022/06/23 01:11:05;;;;;;;7.57;5.90;;;13.90;84.80;;;;;;4881741;29;20048;-81
2022/06/23 01:13:33;;;;;;;;;;;13.80;84.30;;;;;;4941701;28;20054;-80
2022/06/23 01:16:17;;;;;;;10.20;6.57;;;13.80;85.40;;;;;;4993804;28;19921;-81
2022/06/23 01:19:31;;;;;;;6.78;5.82;;;13.80;84.80;;;;;;4977838;28;20039;-81
2022/06/23 01:22:02;;;;;;;7.30;6.38;;;13.80;85.20;;;;;;4934038;28;20088;-81
2022/06/23 01:24:46;;;;;;;9.40;5.78;;;13.80;85.10;;;;;;4977431;28;20045;-81
2022/06/23 01:27:41;;;;;;;7.80;6.13;;;13.90;84.90;;;;;;4977344;28;20042;-80
2022/06/23 01:30:09;;;;;;;8.30;6.57;;;13.80;85.20;;;;;;4977615;28;20108;-81
2022/06/23 01:32:40;;;;;;;9.15;7.30;;;13.90;85.00;;;;;;4961133;28;20042;-80
2022/06/23 01:35:06;;;;;;;7.97;6.43;;;14.00;84.90;;;;;;4977398;28;20042;-80
2022/06/23 01:37:52;;;;;;;10.65;8.07;;;14.00;85.10;;;;;;4977276;28;20042;-80
2022/06/23 01:40:27;;;;;;;9.93;8.10;;;14.00;85.10;;;;;;4993451;28;20535;-81
2022/06/23 01:43:04;;;;;;;10.40;8.05;;;14.00;85.00;;;;;;4977148;28;20093;-80
2022/06/23 01:45:45;;;;;;;9.63;7.57;;;14.00;85.00;;;;;;4993328;28;20088;-80
2022/06/23 01:48:51;;;;;;;9.90;8.48;;;13.90;85.00;;;;;;4977170;28;20047;-81
2022/06/23 01:51:20;;;;;;;9.30;7.75;;;13.90;85.20;;;;;;4976959;28;20043;-80
2022/06/23 01:53:46;;;;;;;8.77;7.85;;;13.90;85.30;;;;;;4993497;28;20173;-81
2022/06/23 01:56:26;;;;;;;12.02;9.00;;;13.90;85.70;;;;;;4976916;28;20510;-81
2022/06/23 01:58:54;;;;;;;9.65;8.00;;;14.00;85.60;;;;;;4993232;28;20042;-81
2022/06/23 02:02:01;;;;;;;12.00;9.90;;;13.90;85.40;;;;;;4976809;28;20101;-81
2022/06/23 02:04:49;;;;;;;10.40;9.00;;;13.90;85.40;;;;;;4955989;28;20054;-81
2022/06/23 02:07:24;;;;;;;12.38;9.07;;;13.90;85.10;;;;;;4992850;28;20061;-81
2022/06/23 02:09:53;;;;;;;10.95;8.85;;;13.80;85.20;;;;;;4976806;28;20585;-81
2022/06/23 02:12:33;;;;;;;15.02;10.00;;;13.80;85.10;;;;;;4960814;28;20038;-81
2022/06/23 02:15:06;;;;;;;10.50;9.25;;;13.70;85.30;;;;;;4993111;28;20386;-81
2022/06/23 02:17:45;;;;;;;11.45;9.60;;;13.70;85.40;;;;;;4976582;28;20039;-81
2022/06/23 02:20:21;;;;;;;10.15;8.93;;;13.60;85.30;;;;;;4976590;28;20031;-81
2022/06/23 02:22:48;;;;;;;11.07;9.40;;;13.60;85.50;;;;;;4976482;28;20050;-81
2022/06/23 02:25:28;;;;;;;11.10;9.45;;;13.60;85.70;;;;;;4976534;28;20049;-81
2022/06/23 02:28:09;;;;;;;12.45;9.65;;;13.60;86.00;;;;;;4960534;28;20038;-81
2022/06/23 02:31:01;;;;;;;12.60;9.90;;;13.60;85.90;;;;;;4976695;28;20507;-81
2022/06/23 02:33:40;;;;;;;11.70;8.85;;;13.60;86.10;;;;;;4960319;28;20128;-81
2022/06/23 02:36:27;;;;;;;12.43;9.10;;;13.60;85.60;;;;;;4992912;28;20379;-80
2022/06/23 02:39:00;;;;;;;11.90;9.65;;;13.60;85.80;;;;;;4976288;28;20486;-80
2022/06/23 02:41:33;;;;;;;11.35;9.48;;;13.60;85.90;;;;;;4992448;28;20034;-80
2022/06/23 02:44:33;;;;;;;13.38;9.00;;;13.60;85.80;;;;;;4976338;28;20038;-81
2022/06/23 02:47:23;;;;;;;11.52;9.73;;;13.60;85.80;;;;;;4976471;28;20073;-81
2022/06/23 02:50:25;;;;;;;12.45;9.52;;;13.60;85.80;;;;;;4976149;28;20097;-81
2022/06/23 02:53:18;;;;;;;10.40;9.23;;;13.50;86.10;;;;;;4946385;28;20085;-81
2022/06/23 02:56:08;;;;;;;12.97;9.20;;;13.50;86.00;;;;;;4976220;28;20069;-81
2022/06/23 02:58:45;;;;;;;12.68;9.75;;;13.50;86.00;;;;;;4976053;28;20050;-81
2022/06/23 03:01:25;;;;;;;11.25;10.05;;;13.50;86.30;;;;;;4976049;28;20498;-81
2022/06/23 03:04:02;;;;;;;11.43;9.65;;;13.50;86.50;;;;;;4959970;28;20046;-82
2022/06/23 03:07:15;;;;;;;12.50;10.23;;;13.50;86.40;;;;;;4975963;28;20069;-82
2022/06/23 03:09:45;;;;;;;14.88;11.60;;;13.50;87.00;;;;;;4962406;28;20054;-81
2022/06/23 03:12:20;;;;;;;13.98;10.57;;;13.50;86.40;;;;;;4975671;28;20049;-81
2022/06/23 03:15:03;;;;;;;14.32;12.07;;;13.50;86.20;;;;;;4978751;28;20042;-81
2022/06/23 03:17:59;;;;;;;13.32;10.98;;;13.50;86.40;;;;;;4977574;28;20050;-81
2022/06/23 03:20:34;;;;;;;13.95;10.05;;;13.50;86.30;;;;;;4996889;28;20043;-81
2022/06/23 03:23:25;;;;;;;14.13;10.52;;;13.50;86.30;;;;;;4996488;28;20046;-81
2022/06/23 03:25:57;;;;;;;12.75;11.07;;;13.50;86.20;;;;;;4980548;28;20042;-82
2022/06/23 03:28:33;;;;;;;12.82;10.23;;;13.40;86.40;;;;;;4980131;28;20034;-81
2022/06/23 03:31:14;;;;;;;14.57;10.18;;;13.40;86.40;;;;;;4980115;28;20042;-82
2022/06/23 03:33:52;;;;;;;13.18;10.30;;;13.30;86.50;;;;;;4996351;28;20073;-81
2022/06/23 03:36:43;;;;;;;16.50;11.75;;;13.30;86.30;;;;;;4981191;28;20363;-82
2022/06/23 03:42:28;;;;;;;13.68;10.75;;;13.30;86.90;;;;;;4979914;28;20046;-81
2022/06/23 03:45:36;;;;;;;13.60;11.60;;;13.40;86.70;;;;;;4979965;28;20053;-81
2022/06/23 03:48:01;;;;;;;14.95;11.38;;;13.30;86.90;;;;;;4977355;28;20491;-81
2022/06/23 03:50:47;;;;;;;13.77;11.57;;;13.30;86.70;;;;;;4979946;28;20052;-82
2022/06/23 03:53:37;;;;;;;14.55;12.55;;;13.30;86.90;;;;;;4979935;28;20500;-81
2022/06/23 03:56:11;;;;;;;14.95;11.68;;;13.40;86.90;;;;;;4979742;28;20042;-81
2022/06/23 03:58:43;;;;;;;;;;;13.40;87.00;;;;;;4980068;28;20045;-81
2022/06/23 04:01:17;;;;;;;12.25;10.27;;;13.40;87.80;;;;;;4963539;28;19968;-81
2022/06/23 04:03:54;;;;;;;15.48;12.70;;;13.40;87.30;;;;;;4980162;28;20042;-81
2022/06/23 04:06:39;;;;;;;16.20;12.10;;;13.50;87.50;;;;;;4979350;28;20046;-81
2022/06/23 04:09:15;;;;;;;16.70;12.98;;;13.50;87.70;;;;;;4979665;28;20111;-81
2022/06/23 04:11:48;;;;;;;12.40;10.70;;;13.50;87.20;;;;;;4995670;28;20050;-80
2022/06/23 04:14:29;;;;;;;15.85;13.40;;;13.50;87.20;;;;;;4979399;28;20038;-81
2022/06/23 04:17:25;;;;;;;15.20;12.55;;;13.50;87.30;;;;;;4995864;28;20471;-81
2022/06/23 04:20:00;;;;;;;16.38;12.88;;;13.60;87.30;;;;;;4979171;28;20092;-81
2022/06/23 04:22:37;;;;;;;14.13;12.32;;;13.60;87.10;;;;;;4979158;28;20042;-81
2022/06/23 04:25:05;;;;;;;11.63;9.93;;;13.60;87.90;;;;;;4979233;28;20057;-81
2022/06/23 04:27:50;;;;;;;22.15;12.43;;;13.60;87.70;;;;;;4979220;28;20042;-81
2022/06/23 04:30:32;;;;;;;20.05;11.43;;;13.60;87.80;;;;;;4978688;28;20100;-80
2022/06/23 04:33:00;;;;;;;18.83;11.68;;;13.70;87.90;;;;;;4995272;28;20049;-81
2022/06/23 04:35:36;;;;;;;18.77;12.68;;;13.70;88.20;;;;;;4978414;28;20129;-81
2022/06/23 04:38:11;;;;;;;21.05;14.20;;;13.70;87.80;;;;;;4978008;28;20049;-81
2022/06/23 04:40:43;;;;;;;17.95;13.02;;;13.80;87.60;;;;;;4978728;28;20046;-82
2022/06/23 04:43:18;;;;;;;11.00;9.80;;;13.90;88.10;;;;;;4994490;28;20042;-81
2022/06/23 04:46:00;;;;;;;13.75;11.20;;;13.90;87.90;;;;;;4962542;28;20065;-81
2022/06/23 04:48:36;;;;;;;13.98;11.05;;;14.00;88.30;;;;;;4994329;28;20046;-81
2022/06/23 04:51:15;;;;;;;13.32;9.98;;;14.00;87.90;;;;;;4962505;28;20077;-81
2022/06/23 04:53:55;;;;;;;14.88;11.55;;;14.10;87.70;;;;;;4994344;28;20045;-82
2022/06/23 04:57:17;;;;;;;12.80;10.93;;;14.10;87.60;;;;;;4962002;28;20383;-82
2022/06/23 04:59:51;;;;;;;14.30;12.10;;;14.30;88.50;;;;;;4881851;29;20057;-81
2022/06/23 05:02:23;;;;;;;12.27;9.32;;;14.40;87.70;;;;;;4949766;28;20053;-81
2022/06/23 05:05:15;;;;;;;14.45;11.38;;;14.40;87.70;;;;;;4977951;28;20505;-80
2022/06/23 05:07:49;;;;;;;14.88;11.77;;;14.50;88.10;;;;;;4967038;28;20049;-81
2022/06/23 05:10:41;;;;;;;14.35;10.45;;;14.60;87.80;;;;;;4978109;28;20399;-81
2022/06/23 05:13:21;;;;;;;12.25;9.18;;;14.70;87.80;;;;;;4977115;28;20398;-82
2022/06/23 05:16:28;;;;;;;13.90;10.32;;;14.70;87.60;;;;;;4977829;28;20486;-81
2022/06/23 05:18:58;;;;;;;11.18;9.98;;;14.80;87.50;;;;;;4881551;29;20056;-81
2022/06/23 05:21:29;;;;;;;10.40;8.40;;;14.90;87.80;;;;;;4881545;29;20048;-81
2022/06/23 05:23:59;;;;;;;8.70;7.38;;;15.00;87.60;;;;;;4916482;28;20054;-81
2022/06/23 05:26:38;;;;;;;14.25;10.27;;;15.10;87.30;;;;;;4961511;28;20247;-81
2022/06/23 05:29:18;;;;;;;10.07;8.68;;;15.20;87.20;;;;;;4961417;28;20042;-82
2022/06/23 05:31:48;;;;;;;11.07;9.70;;;15.30;87.20;;;;;;4961337;28;20045;-82
2022/06/23 05:34:23;;;;;;;8.55;7.13;;;15.40;87.00;;;;;;4961088;28;20039;-81
2022/06/23 05:37:04;;;;;;;10.65;9.40;;;15.50;86.90;;;;;;4978069;28;20035;-81
2022/06/23 05:39:33;;;;;;;13.70;10.38;;;15.50;87.00;;;;;;4961564;28;20042;-80
2022/06/23 05:42:06;;;;;;;11.57;10.38;;;15.60;86.50;;;;;;4960977;28;20042;-78
2022/06/23 05:44:42;;;;;;;10.60;8.45;;;15.70;86.50;;;;;;4977348;28;20125;-78
2022/06/23 05:47:11;;;;;;;14.80;10.65;;;15.80;86.30;;;;;;4977369;28;20101;-79
2022/06/23 05:49:43;;;;;;;15.95;8.93;;;15.90;86.20;;;;;;4977439;28;20125;-80
2022/06/23 05:52:58;;;;;;;11.45;8.82;;;16.00;86.20;;;;;;4977763;28;20049;-80
2022/06/23 05:55:30;;;;;;;8.27;7.43;;;16.00;86.30;;;;;;4972705;28;20050;-80
2022/06/23 05:58:10;;;;;;;9.38;7.18;;;16.20;85.90;;;;;;4977636;28;20384;-80
2022/06/23 06:01:02;;;;;;;11.18;10.00;;;16.20;85.60;;;;;;4977448;28;20046;-80
2022/06/23 06:03:46;;;;;;;11.05;9.82;;;16.40;85.60;;;;;;4977351;28;20038;-81
2022/06/23 06:06:12;;;;;;;11.45;9.25;;;16.50;85.40;;;;;;4961653;28;20084;-79
2022/06/23 06:11:31;;;;;;;11.82;10.15;;;16.60;84.80;;;;;;4977489;28;20046;-80
2022/06/23 06:13:58;;;;;;;11.07;9.05;;;16.80;85.30;;;;;;4977302;28;20042;-79
2022/06/23 06:16:24;;;;;;;11.43;10.25;;;16.80;85.30;;;;;;4961061;28;20046;-81
2022/06/23 06:18:51;;;;;;;11.50;9.70;;;16.90;84.70;;;;;;4976034;28;20046;-78
2022/06/23 06:21:20;;;;;;;10.93;9.63;;;17.00;84.60;;;;;;4975622;28;20038;-79
2022/06/23 06:23:49;;;;;;;11.60;9.32;;;17.10;84.50;;;;;;4992287;28;20057;-77
2022/06/23 06:26:18;;;;;;;12.77;9.57;;;17.20;84.40;;;;;;4976748;28;20046;-80
2022/06/23 06:28:44;;;;;;;10.65;9.32;;;17.30;84.20;;;;;;4976384;28;20050;-80
2022/06/23 06:31:31;;;;;;;13.70;10.15;;;17.40;83.90;;;;;;4960353;28;20061;-79
2022/06/23 06:34:19;;;;;;;11.02;9.93;;;17.50;84.00;;;;;;4992593;28;20042;-79
2022/06/23 06:36:47;;;;;;;12.20;10.18;;;17.60;83.60;;;;;;4960940;28;20070;-80
2022/06/23 06:39:31;;;;;;;8.68;6.68;;;17.70;83.50;;;;;;4961285;28;20044;-79
2022/06/23 06:42:20;;;;;;;13.55;11.40;;;17.80;83.20;;;;;;4976355;28;20552;-78
2022/06/23 06:44:51;;;;;;;12.73;9.10;;;17.90;82.90;;;;;;4976317;28;20050;-81
2022/06/23 06:47:20;;;;;;;12.98;9.75;;;18.00;82.60;;;;;;4960392;28;20089;-80
2022/06/23 06:49:46;;;;;;;10.90;9.50;;;18.00;82.30;;;;;;4976121;28;20074;-80
2022/06/23 06:52:13;;;;;;;14.90;10.10;;;18.20;81.90;;;;;;4960420;28;20057;-80
2022/06/23 06:54:44;;;;;;;10.23;8.48;;;18.20;81.70;;;;;;4959434;28;20077;-80
2022/06/23 06:57:16;;;;;;;12.52;9.32;;;18.40;81.40;;;;;;4976179;28;20039;-80
2022/06/23 07:00:14;;;;;;;9.90;8.27;;;18.50;81.00;;;;;;4976053;28;20078;-79
2022/06/23 07:02:50;;;;;;;11.35;9.25;;;18.50;80.20;;;;;;4960044;28;20132;-80
2022/06/23 07:05:31;;;;;;;12.70;8.93;;;18.60;80.30;;;;;;4992287;28;20502;-79
2022/06/23 07:08:06;;;;;;;10.50;8.63;;;18.70;80.00;;;;;;4975791;28;20518;-79
2022/06/23 07:10:53;;;;;;;9.90;7.72;;;18.80;80.00;;;;;;4992200;28;20422;-81
2022/06/23 07:13:39;;;;;;;10.90;8.88;;;18.90;79.90;;;;;;4992244;28;20038;-79
2022/06/23 07:16:24;;;;;;;11.05;7.25;;;19.00;79.60;;;;;;4976035;28;20050;-79
2022/06/23 07:18:57;;;;;;;12.30;9.05;;;19.10;78.90;;;;;;4959266;28;20094;-80
2022/06/23 07:21:36;;;;;;;11.70;7.35;;;19.20;78.90;;;;;;4975913;28;20046;-79
2022/06/23 07:24:28;;;;;;;10.60;9.27;;;19.30;78.50;;;;;;4992489;28;20049;-79
2022/06/23 07:27:10;;;;;;;9.38;8.25;;;19.40;78.40;;;;;;4959469;28;20141;-81
2022/06/23 07:30:01;;;;;;;11.32;9.18;;;19.50;78.30;;;;;;4975741;28;20057;-81
2022/06/23 07:32:45;;;;;;;12.25;9.73;;;19.70;78.00;;;;;;4975147;28;20054;-81
2022/06/23 07:35:21;;;;;;;11.45;8.82;;;19.80;76.80;;;;;;4975891;28;20038;-81
2022/06/23 07:38:06;;;;;;;10.05;7.55;;;19.90;76.50;;;;;;4991913;28;20533;-83
2022/06/23 07:40:40;;;;;;;10.15;7.03;;;20.00;76.30;;;;;;4975840;28;20046;-82
2022/06/23 07:43:15;;;;;;;;;;;20.20;76.30;;;;;;4976447;28;20054;-81
2022/06/23 07:45:53;;;;;;;13.45;8.52;;;20.40;76.70;;;;;;4975719;28;19924;-82
2022/06/23 07:48:20;;;;;;;9.48;8.50;;;20.50;75.90;;;;;;4991946;28;20398;-81
2022/06/23 07:50:46;;;;;;;10.70;6.82;;;20.60;75.60;;;;;;4991835;28;20038;-81
2022/06/23 07:53:22;;;;;;;9.73;7.53;;;20.70;74.90;;;;;;4975602;28;20050;-83
2022/06/23 07:55:49;;;;;;;9.27;7.72;;;20.90;74.70;;;;;;4975729;28;20482;-82
2022/06/23 07:58:20;;;;;;;10.65;8.00;;;20.90;74.40;;;;;;4959594;28;20065;-81
2022/06/23 08:00:48;;;;;;;8.63;7.70;;;21.00;74.30;;;;;;4992343;28;20077;-81
2022/06/23 08:03:24;;;;;;;10.40;7.95;;;21.10;73.60;;;;;;4975555;28;20049;-82
2022/06/23 08:05:55;;;;;;;7.22;6.53;;;21.20;73.30;;;;;;4962229;28;20132;-82
2022/06/23 08:08:29;;;;;;;7.35;6.55;;;21.40;73.20;;;;;;4962378;28;20058;-82
2022/06/23 08:13:50;;;;;;;11.20;7.13;;;21.60;72.00;;;;;;4978880;28;20505;-83
2022/06/23 08:19:11;;;;;;;9.50;6.80;;;21.80;70.80;;;;;;4979048;28;20069;-83
2022/06/23 08:21:45;;;;;;;9.48;6.93;;;21.90;70.60;;;;;;4962519;28;20050;-83
2022/06/23 08:24:12;;;;;;;;;;;22.00;70.20;;;;;;4963316;28;20157;-83
2022/06/23 08:26:41;;;;;;;9.48;7.03;;;22.20;68.20;;;;;;4978598;28;20385;-83
2022/06/23 08:29:11;;;;;;;7.45;6.20;;;22.40;69.90;;;;;;4963087;28;20054;-83
2022/06/23 08:31:38;;;;;;;10.07;6.65;;;22.50;69.80;;;;;;4978469;28;20049;-83
2022/06/23 08:34:04;;;;;;;6.28;5.65;;;22.60;69.30;;;;;;4978536;28;20038;-82
2022/06/23 08:36:44;;;;;;;7.50;5.80;;;22.80;69.10;;;;;;4978355;28;20482;-82
2022/06/23 08:39:30;;;;;;;7.72;6.53;;;22.90;68.30;;;;;;4978699;28;20089;-81
2022/06/23 08:42:13;;;;;;;6.80;6.07;;;23.10;67.00;;;;;;4978571;28;20061;-81
2022/06/23 08:45:03;;;;;;;7.95;6.30;;;23.30;68.00;;;;;;4962481;28;20050;-82
2022/06/23 08:47:47;;;;;;;9.77;6.20;;;23.40;66.70;;;;;;4978154;28;20077;-82
2022/06/23 08:50:43;;;;;;;7.80;6.47;;;23.60;67.30;;;;;;4962169;28;20038;-82
2022/06/23 08:53:33;;;;;;;7.18;5.40;;;23.70;65.20;;;;;;4962098;28;20038;-82
2022/06/23 08:56:04;;;;;;;9.98;5.53;;;23.80;64.30;;;;;;4978160;28;20505;-82
2022/06/23 08:58:39;;;;;;;6.97;5.10;;;23.90;64.60;;;;;;4962176;28;20371;-82
2022/06/23 09:01:34;;;;;;;8.88;5.50;;;24.00;63.10;;;;;;4978332;28;20050;-82
2022/06/23 09:04:34;;;;;;;8.48;5.28;;;24.00;60.80;;;;;;4977926;28;20128;-82
2022/06/23 09:07:35;;;;;;;7.10;5.40;;;24.30;61.70;;;;;;4961410;28;20062;-82
2022/06/23 09:10:23;;;;;;;9.52;5.63;;;24.40;60.40;;;;;;4978157;28;20379;-82
2022/06/23 09:13:07;;;;;;;7.88;5.13;;;24.40;60.00;;;;;;4977831;28;20042;-82
2022/06/23 09:15:53;;;;;;;7.13;4.57;;;24.60;61.30;;;;;;4995063;28;20046;-82
2022/06/23 09:18:46;;;;;;;7.82;4.95;;;24.70;60.50;;;;;;4962049;28;20100;-82
2022/06/23 09:21:34;;;;;;;5.38;4.00;;;24.90;57.60;;;;;;4977664;28;20132;-82
2022/06/23 09:24:24;;;;;;;7.10;4.65;;;25.00;59.70;;;;;;4977586;28;20046;-82
2022/06/23 09:27:21;;;;;;;6.35;4.47;;;25.20;58.40;;;;;;4961536;28;20046;-82
2022/06/23 09:30:07;;;;;;;7.47;4.43;;;25.30;58.90;;;;;;4977436;28;20034;-81
2022/06/23 09:32:47;;;;;;;6.80;4.50;;;25.40;59.90;;;;;;4977670;28;20042;-82
2022/06/23 09:35:38;;;;;;;7.05;4.35;;;25.50;56.90;;;;;;4977623;28;20073;-82
2022/06/23 09:38:04;;;;;;;4.72;3.58;;;25.70;55.20;;;;;;4977427;28;20132;-82
2022/06/23 09:40:51;;;;;;;8.35;3.55;;;25.90;56.10;;;;;;4994245;28;20134;-82
2022/06/23 09:43:38;;;;;;;7.80;5.40;;;25.90;55.20;;;;;;4961856;28;20134;-81
2022/06/23 09:46:09;;;;;;;6.30;3.80;;;26.10;56.50;;;;;;4994049;28;20138;-81
2022/06/23 09:48:50;;;;;;;5.40;4.20;;;26.20;57.30;;;;;;4978084;28;20379;-82
2022/06/23 09:51:25;;;;;;;8.77;4.90;;;26.30;56.70;;;;;;4977876;28;20077;-81
2022/06/23 09:53:50;;;;;;;6.65;4.85;;;26.40;56.30;;;;;;4977941;28;20042;-81
2022/06/23 09:56:19;;;;;;;5.18;4.07;;;26.40;52.30;;;;;;4976503;28;20513;-81
2022/06/23 09:59:06;;;;;;;5.57;4.20;;;26.50;55.10;;;;;;4977097;28;20093;-81
2022/06/23 10:01:37;;;;;;;6.03;3.80;;;26.60;54.70;;;;;;4976904;28;20042;-80
2022/06/23 10:04:26;;;;;;;4.63;3.83;;;26.60;53.00;;;;;;4961220;28;20125;-81
2022/06/23 10:07:21;;;;;;;3.95;3.47;;;26.70;51.00;;;;;;4976679;28;20101;-80
2022/06/23 10:10:21;;;;;;;7.07;3.95;;;26.80;51.00;;;;;;4977039;28;20055;-80
2022/06/23 10:13:18;;;;;;;6.13;3.85;;;26.90;50.90;;;;;;4976756;28;20450;-81
2022/06/23 10:15:56;;;;;;;3.83;2.65;;;27.00;50.60;;;;;;4961344;28;20034;-80
2022/06/23 10:18:58;;;;;;;6.35;3.75;;;27.20;52.20;;;;;;4976925;28;20132;-80
2022/06/23 10:21:27;;;;;;;4.63;2.97;;;27.30;51.30;;;;;;4977678;28;20078;-80
2022/06/23 10:24:19;;;;;;;3.78;3.10;;;27.50;50.80;;;;;;4979156;28;20038;-81
2022/06/23 10:26:48;;;;;;;4.28;3.47;;;27.50;47.70;;;;;;4976515;28;20537;-79
2022/06/23 10:29:50;;;;;;;5.00;3.13;;;27.60;50.30;;;;;;4975552;28;20043;-78
2022/06/23 10:32:44;;;;;;;6.10;3.20;;;27.60;46.50;;;;;;4976466;28;20046;-79
2022/06/23 10:35:49;;;;;;;4.43;3.40;;;27.60;46.40;;;;;;4976450;28;20121;-78
2022/06/23 10:38:28;;;;;;;4.35;2.78;;;27.80;47.50;;;;;;4960643;28;20053;-82
2022/06/23 10:41:11;;;;;;;5.00;3.42;;;27.90;47.90;;;;;;4976695;28;20100;-78
2022/06/23 10:44:16;;;;;;;8.37;3.77;;;28.00;45.50;;;;;;4976455;28;20042;-78
2022/06/23 10:47:03;;;;;;;6.53;3.22;;;28.00;47.70;;;;;;4992372;28;20486;-79
2022/06/23 10:50:04;;;;;;;5.13;3.10;;;28.10;46.70;;;;;;4976257;28;20042;-79
2022/06/23 10:53:08;;;;;;;2.90;2.60;;;28.10;44.90;;;;;;4963622;28;20081;-81
2022/06/23 10:55:33;;;;;;;4.75;2.95;;;28.30;47.70;;;;;;4940190;28;20046;-80
2022/06/23 10:58:23;;;;;;;4.93;2.97;;;28.30;46.50;;;;;;4977147;28;20058;-79
2022/06/23 11:00:55;;;;;;;6.35;3.55;;;28.40;47.60;;;;;;4976586;28;20039;-78
2022/06/23 11:03:29;;;;;;;7.07;3.35;;;28.50;46.40;;;;;;4976362;28;20078;-80
2022/06/23 11:06:16;;;;;;;4.43;2.70;;;28.60;46.30;;;;;;4976415;28;20060;-80
2022/06/23 11:09:08;;;;;;;5.22;3.33;;;28.70;46.50;;;;;;4976007;28;20054;-79
2022/06/23 11:11:48;;;;;;;4.18;2.78;;;28.80;45.90;;;;;;4992665;28;20057;-78
2022/06/23 11:14:41;;;;;;;6.03;3.20;;;28.80;45.70;;;;;;4976134;28;20046;-79
2022/06/23 11:17:27;;;;;;;4.50;3.00;;;28.90;45.30;;;;;;4992112;28;20035;-78
2022/06/23 11:20:21;;;;;;;8.32;3.15;;;29.10;45.40;;;;;;4975971;28;20042;-79
2022/06/23 11:23:00;;;;;;;5.35;3.20;;;29.10;44.00;;;;;;4975975;28;20073;-80
2022/06/23 11:25:44;;;;;;;5.30;3.00;;;29.30;45.30;;;;;;4975927;28;20088;-80
2022/06/23 11:28:16;;;;;;;4.07;2.72;;;29.40;45.10;;;;;;4991873;28;20054;-79
2022/06/23 11:31:16;;;;;;;4.10;3.03;;;29.40;44.50;;;;;;4975830;28;20034;-80
2022/06/23 11:33:50;;;;;;;4.25;2.65;;;29.40;41.60;;;;;;4975823;28;20121;-79
2022/06/23 11:36:37;;;;;;;4.60;3.00;;;29.40;44.00;;;;;;4975635;28;20097;-78
2022/06/23 11:39:18;;;;;;;3.65;2.95;;;29.40;43.70;;;;;;4976280;28;20189;-80
2022/06/23 11:41:58;;;;;;;5.25;3.20;;;29.60;43.60;;;;;;4979497;28;20082;-78
2022/06/23 11:44:46;;;;;;;3.97;2.83;;;29.80;43.40;;;;;;4979453;28;20049;-79
2022/06/23 11:47:20;;;;;;;5.78;2.85;;;29.90;44.70;;;;;;4963177;28;20043;-79
2022/06/23 11:50:03;;;;;;;3.78;2.65;;;30.00;43.90;;;;;;4979250;28;20057;-78
2022/06/23 11:52:36;;;;;;;5.28;3.35;;;30.20;41.90;;;;;;4979731;28;20038;-79
2022/06/23 11:55:08;;;;;;;4.47;2.80;;;30.30;43.00;;;;;;4979246;28;20505;-78
2022/06/23 11:57:51;;;;;;;5.13;3.20;;;30.40;44.10;;;;;;4979154;28;20038;-76
2022/06/23 12:00:21;;;;;;;5.80;3.05;;;30.50;41.80;;;;;;4979156;28;20039;-76
2022/06/23 12:03:05;;;;;;;5.38;3.22;;;30.60;43.10;;;;;;4963068;28;20042;-75
2022/06/23 12:05:35;;;;;;;8.57;3.22;;;30.80;42.80;;;;;;4979322;28;20035;-79
2022/06/23 12:08:09;;;;;;;5.35;3.55;;;30.80;43.20;;;;;;4975496;28;20050;-79
2022/06/23 12:10:36;;;;;;;5.00;3.17;;;31.00;42.90;;;;;;4991975;28;20046;-79
2022/06/23 12:13:04;;;;;;;6.70;3.28;;;31.10;42.80;;;;;;4975914;28;20561;-79
2022/06/23 12:15:47;;;;;;;4.68;3.20;;;31.10;42.00;;;;;;4976331;28;20483;-79
2022/06/23 12:18:21;;;;;;;6.47;3.35;;;31.30;40.70;;;;;;4976093;28;20074;-78
2022/06/23 12:20:52;;;;;;;6.03;3.28;;;31.30;41.50;;;;;;4975514;28;20491;-79
2022/06/23 12:23:49;;;;;;;5.47;3.38;;;31.40;41.20;;;;;;4975478;28;20051;-79
2022/06/23 12:26:29;;;;;;;6.72;3.38;;;31.40;41.00;;;;;;4959386;28;20089;-79
2022/06/23 12:29:24;;;;;;;5.35;3.53;;;31.40;41.40;;;;;;4959274;28;20042;-79
2022/06/23 12:32:17;;;;;;;3.40;3.10;;;31.70;42.20;;;;;;4975606;28;20394;-80
2022/06/23 12:35:02;;;;;;;8.52;3.55;;;31.60;40.70;;;;;;4975040;28;20117;-79
2022/06/23 12:37:33;;;;;;;7.90;3.38;;;31.60;39.70;;;;;;4975116;28;20554;-78
2022/06/23 12:40:21;;;;;;;4.30;3.22;;;31.60;40.50;;;;;;4975711;28;20061;-78
2022/06/23 12:42:54;;;;;;;5.10;3.28;;;31.60;40.90;;;;;;4976367;28;20486;-78
2022/06/23 12:45:30;;;;;;;4.20;3.13;;;31.70;40.90;;;;;;4975379;28;20047;-79
2022/06/23 12:48:28;;;;;;;7.75;3.78;;;31.70;40.70;;;;;;4974974;28;20078;-78
2022/06/23 12:51:12;;;;;;;4.97;3.13;;;31.70;40.20;;;;;;4893064;28;20533;-78
2022/06/23 12:54:11;;;;;;;3.88;2.85;;;31.80;41.60;;;;;;4975466;28;20122;-82
2022/06/23 12:56:55;;;;;;;4.70;3.78;;;31.90;42.60;;;;;;4975988;28;20460;-79
2022/06/23 12:59:34;;;;;;;4.40;3.20;;;32.00;41.70;;;;;;4975264;28;20039;-79
2022/06/23 13:02:49;;;;;;;6.35;3.65;;;32.00;41.90;;;;;;4975094;28;20050;-79
2022/06/23 13:05:17;;;;;;;6.78;3.53;;;32.10;41.70;;;;;;4881989;29;20575;-79
2022/06/23 13:07:55;;;;;;;6.10;4.00;;;32.00;41.20;;;;;;4881505;29;20143;-79
2022/06/23 13:10:49;;;;;;;5.07;3.38;;;32.00;39.50;;;;;;4917685;28;20050;-81
2022/06/23 13:13:35;;;;;;;5.68;3.53;;;32.20;40.10;;;;;;4990845;28;20086;-82
2022/06/23 13:16:03;;;;;;;7.03;3.00;;;32.20;40.30;;;;;;4974854;28;20360;-78
2022/06/23 13:18:35;;;;;;;5.43;3.40;;;32.30;40.00;;;;;;4974698;28;20042;-78
2022/06/23 13:21:15;;;;;;;8.57;4.32;;;32.30;39.70;;;;;;4974520;28;20125;-78
2022/06/23 13:23:51;;;;;;;7.95;3.33;;;32.00;38.80;;;;;;4974385;28;20050;-81
2022/06/23 13:26:17;;;;;;;4.65;3.22;;;32.10;39.40;;;;;;4974395;28;20046;-81
2022/06/23 13:28:45;;;;;;;8.15;3.78;;;32.20;39.40;;;;;;4974278;28;20045;-82
2022/06/23 13:31:26;;;;;;;4.70;3.15;;;32.30;38.50;;;;;;4974540;28;20065;-81
2022/06/23 13:34:05;;;;;;;5.72;3.42;;;32.40;38.80;;;;;;4958386;28;20403;-81
2022/06/23 13:36:53;;;;;;;4.53;3.28;;;32.20;35.60;;;;;;4974310;28;20046;-80
2022/06/23 13:39:32;;;;;;;3.60;3.15;;;32.40;38.60;;;;;;4974271;28;20054;-81
2022/06/23 13:42:23;;;;;;;3.92;3.25;;;32.40;38.30;;;;;;4974186;28;20054;-78
2022/06/23 13:44:59;;;;;;;4.97;3.38;;;32.60;38.20;;;;;;4974102;28;20046;-79
2022/06/23 13:47:33;;;;;;;4.35;3.40;;;32.80;36.70;;;;;;4973963;28;20043;-79
2022/06/23 13:50:02;;;;;;;6.63;3.15;;;32.80;37.20;;;;;;4973880;28;20042;-78
2022/06/23 13:52:37;;;;;;;7.72;2.80;;;33.00;37.90;;;;;;4973932;28;20047;-78
2022/06/23 13:55:42;;;;;;;5.90;3.15;;;33.10;37.60;;;;;;4973882;28;20094;-78
2022/06/23 13:58:33;;;;;;;3.78;3.03;;;33.10;36.10;;;;;;4959953;28;20138;-77
2022/06/23 14:01:09;;;;;;;3.83;2.45;;;33.00;35.80;;;;;;4973755;28;20042;-78
2022/06/23 14:04:04;;;;;;;5.72;2.70;;;33.00;37.00;;;;;;4973619;28;20050;-80